Data for 09/05/2015

Time Sea-Level Adjusted Pressure Absolute Pressure Temperature Relative Humidity Dew Point   
(mb) (inHg) (mb) (inHg) (C) (F) (%) (C) (F)
00:05 1014 29.94 843 24.89 10.1 50.2 83 7.3 45.1
00:10 1014 29.94 843 24.89 10.1 50.1 82 7.2 44.9
00:15 1014 29.94 843 24.89 10 50.1 83 7.2 45
00:20 1014 29.94 843 24.89 10 50 83 7.2 44.9
00:25 1014 29.94 843 24.89 9.9 49.9 83 7.1 44.8
00:30 1014 29.94 843 24.89 9.9 49.8 83 7.2 44.9
00:35 1014 29.94 843 24.89 9.9 49.8 82 7 44.6
00:40 1014 29.94 843 24.89 9.9 49.9 83 7.1 44.8
00:45 1014 29.94 843 24.89 9.9 49.9 83 7.1 44.8
00:50 1013 29.91 843 24.89 9.9 49.9 82 7 44.6
00:55 1013 29.91 842 24.86 10 50 82 7 44.7
01:00 1013 29.91 843 24.89 10.1 50.1 81 7 44.7
01:05 1013 29.91 843 24.89 10 50.1 82 7.1 44.8
01:10 1013 29.91 843 24.89 10 50.1 81 7 44.6
01:15 1013 29.91 842 24.86 10 50.1 82 7.1 44.8
01:20 1013 29.91 842 24.86 10 50 81 7 44.6
01:25 1013 29.91 842 24.86 10.1 50.2 81 7 44.6
01:30 1013 29.91 842 24.86 10.2 50.3 81 7.1 44.7
01:35 1013 29.91 842 24.86 10.2 50.3 81 7.1 44.7
01:40 1013 29.91 842 24.86 10.2 50.3 81 7.1 44.7
01:45 1013 29.91 842 24.86 10.2 50.3 81 7 44.7
01:50 1013 29.91 842 24.86 10.2 50.3 81 7.1 44.7
01:55 1013 29.91 842 24.86 10.1 50.2 82 7.1 44.9
02:00 1013 29.91 842 24.86 10 50 82 7.1 44.8
02:05 1013 29.91 842 24.86 9.9 49.8 82 7 44.7
02:10 1013 29.91 842 24.86 9.9 49.8 82 7 44.6
02:15 1013 29.91 842 24.86 10 49.9 82 7 44.6
02:20 1013 29.91 842 24.86 10 50.1 81 7 44.6
02:25 1013 29.91 842 24.86 10.1 50.1 80 6.8 44.2
02:30 1013 29.91 842 24.86 10.2 50.4 79 6.8 44.2
02:35 1013 29.91 842 24.86 10.3 50.6 80 7.1 44.8
02:40 1013 29.91 842 24.86 10.2 50.3 81 7 44.6
02:45 1013 29.91 842 24.86 10.1 50.1 81 7 44.6
02:50 1013 29.91 842 24.86 10 50.1 81 6.9 44.4
02:55 1013 29.91 843 24.89 10.1 50.2 80 6.9 44.4
03:00 1013 29.91 843 24.89 9.6 49.4 86 7.5 45.5
03:05 1013 29.91 843 24.89 9 48.3 89 7.3 45.1
03:10 1014 29.94 843 24.89 8.7 47.7 90 7.2 45
03:15 1014 29.94 843 24.89 8.5 47.2 91 7.2 44.9
03:20 1014 29.94 843 24.89 8.4 47 92 7.2 44.9
03:25 1014 29.94 843 24.89 8.3 47 93 7.2 45
03:30 1014 29.94 843 24.89 8.3 47 93 7.3 45.1
03:35 1014 29.94 843 24.89 8.4 47.1 93 7.3 45.2
03:40 1014 29.94 843 24.89 8.5 47.2 93 7.4 45.4
03:45 1014 29.94 843 24.89 8.5 47.2 93 7.4 45.3
03:50 1014 29.94 843 24.89 8.5 47.3 93 7.5 45.4
03:55 1014 29.94 843 24.89 8.6 47.6 92 7.4 45.3
04:00 1014 29.94 843 24.89 8.9 48.1 90 7.4 45.4
04:05 1014 29.94 843 24.89 8.9 48 91 7.5 45.5
04:10 1014 29.94 843 24.89 8.9 47.9 91 7.5 45.5
04:15 1013 29.91 843 24.89 8.8 47.9 91 7.5 45.5
04:20 1013 29.91 843 24.89 8.8 47.9 91 7.5 45.5
04:25 1013 29.91 843 24.89 8.8 47.8 92 7.5 45.5
04:30 1014 29.94 843 24.89 8.7 47.7 91 7.4 45.4
04:35 1014 29.94 843 24.89 8.7 47.7 92 7.5 45.5
04:40 1014 29.94 843 24.89 8.8 47.9 92 7.6 45.7
04:45 1014 29.94 843 24.89 8.8 47.9 92 7.5 45.6
04:50 1014 29.94 843 24.89 8.7 47.7 92 7.5 45.5
04:55 1014 29.94 843 24.89 8.7 47.6 92 7.5 45.5
05:00 1014 29.94 843 24.89 8.7 47.7 92 7.5 45.6
05:05 1014 29.94 843 24.89 8.8 47.9 92 7.6 45.6
05:10 1014 29.94 843 24.89 8.8 47.9 91 7.5 45.5
05:15 1014 29.94 843 24.89 8.7 47.7 92 7.5 45.5
05:20 1014 29.94 843 24.89 8.7 47.7 92 7.5 45.5
05:25 1014 29.94 843 24.89 8.7 47.6 92 7.5 45.4
05:30 1014 29.94 843 24.89 8.7 47.6 92 7.5 45.4
05:35 1014 29.94 843 24.89 8.7 47.7 92 7.5 45.5
05:40 1014 29.94 843 24.89 8.7 47.7 92 7.5 45.4
05:45 1014 29.94 843 24.89 8.8 47.8 92 7.5 45.5
05:50 1014 29.94 843 24.89 8.8 47.9 92 7.5 45.5
05:55 1014 29.94 843 24.89 8.9 48 91 7.5 45.5
06:00 1014 29.94 843 24.89 8.8 47.9 91 7.5 45.5
06:05 1014 29.94 843 24.89 8.9 48 91 7.5 45.5
06:10 1014 29.94 843 24.89 9 48.1 91 7.6 45.7
06:15 1014 29.94 843 24.89 8.8 47.9 91 7.4 45.3
06:20 1014 29.94 843 24.89 8.8 47.8 91 7.3 45.2
06:25 1014 29.94 843 24.89 8.8 47.8 91 7.4 45.3
06:30 1014 29.94 843 24.89 8.8 47.8 91 7.4 45.4
06:35 1014 29.94 843 24.89 8.8 47.8 91 7.5 45.4
06:40 1014 29.94 843 24.89 8.9 48 91 7.4 45.4
06:45 1014 29.94 843 24.89 8.9 48.1 90 7.4 45.4
06:50 1014 29.94 843 24.89 9 48.1 90 7.5 45.4
06:55 1014 29.94 843 24.89 8.9 48.1 90 7.4 45.4
07:00 1014 29.94 843 24.89 9 48.1 90 7.4 45.3
07:05 1014 29.94 844 24.92 9 48.3 90 7.4 45.4
07:10 1014 29.94 844 24.92 9 48.3 89 7.4 45.3
07:15 1014 29.94 844 24.92 9.1 48.4 89 7.4 45.2
07:20 1015 29.97 844 24.92 9.2 48.6 89 7.4 45.3
07:25 1015 29.97 844 24.92 9.2 48.6 89 7.5 45.5
07:30 1015 29.97 844 24.92 9.2 48.6 89 7.5 45.5
07:35 1015 29.97 844 24.92 9.3 48.7 89 7.5 45.5
07:40 1015 29.97 844 24.92 9.3 48.8 88 7.5 45.4
07:45 1014 29.94 844 24.92 9.4 48.9 88 7.5 45.5
07:50 1014 29.94 844 24.92 9.5 49 88 7.6 45.6
07:55 1014 29.94 844 24.92 9.6 49.2 87 7.6 45.6
08:00 1014 29.94 844 24.92 9.5 49.2 88 7.6 45.7
08:05 1014 29.94 844 24.92 9.6 49.3 87 7.5 45.6
08:10 1014 29.94 844 24.92 9.8 49.6 86 7.6 45.7
08:15 1014 29.94 843 24.89 9.8 49.6 87 7.7 45.9
08:20 1014 29.94 843 24.89 10 49.9 86 7.7 45.9
08:25 1014 29.94 843 24.89 10.3 50.5 86 8 46.3
08:30 1014 29.94 844 24.92 10.5 50.9 84 7.9 46.3
08:35 1014 29.94 844 24.92 10.5 50.9 83 7.7 45.9
08:40 1014 29.94 844 24.92 10.5 50.9 83 7.8 46
08:45 1014 29.94 843 24.89 10.7 51.3 84 8.1 46.6
08:50 1014 29.94 843 24.89 11.2 52.2 80 7.9 46.2
08:55 1014 29.94 843 24.89 11.4 52.5 79 7.9 46.3
09:00 1014 29.94 843 24.89 11.6 52.9 78 8 46.4
09:05 1014 29.94 843 24.89 11.6 52.8 78 7.9 46.3
09:10 1014 29.94 843 24.89 11.7 53.1 76 7.7 45.9
09:15 1014 29.94 843 24.89 11.7 53 77 7.9 46.2
09:20 1014 29.94 843 24.89 11.7 53 76 7.5 45.5
09:25 1014 29.94 843 24.89 11.7 53.1 75 7.5 45.4
09:30 1014 29.94 843 24.89 12.6 54.6 73 7.9 46.2
09:35 1014 29.94 843 24.89 13.6 56.4 67 7.6 45.7
09:40 1014 29.94 843 24.89 13.6 56.4 69 8 46.5
09:45 1014 29.94 843 24.89 13.4 56.1 69 7.8 46
09:50 1014 29.94 844 24.92 13.4 56.2 68 7.7 45.9
09:55 1014 29.94 844 24.92 13.5 56.3 67 7.6 45.7
10:00 1015 29.97 844 24.92 13.6 56.4 68 7.8 46
10:05 1015 29.97 844 24.92 13.5 56.3 67 7.6 45.7
10:10 1015 29.97 844 24.92 13.6 56.4 67 7.7 45.9
10:15 1015 29.97 844 24.92 13.9 56.9 68 8.1 46.6
10:20 1015 29.97 844 24.92 13.4 56.1 73 8.6 47.5
10:25 1015 29.97 844 24.92 12.2 53.9 78 8.5 47.3
10:30 1015 29.97 845 24.95 11.4 52.5 79 7.9 46.2
10:35 1015 29.97 845 24.95 10.8 51.4 81 7.6 45.7
10:40 1015 29.97 845 24.95 10.7 51.3 79 7.3 45.1
10:45 1015 29.97 845 24.95 10.2 50.4 81 7 44.7
10:50 1015 29.97 845 24.95 9.6 49.2 81 6.6 43.8
10:55 1016 30 845 24.95 9.4 48.8 81 6.3 43.4
11:00 1016 30 845 24.95 9.1 48.4 81 6.1 43
11:05 1016 30 845 24.95 8.9 48.1 81 5.9 42.7
11:10 1016 30 845 24.95 9 48.1 81 5.9 42.6
11:15 1016 30 845 24.95 8.8 47.8 81 5.8 42.4
11:20 1016 30 845 24.95 8.8 47.8 81 5.7 42.2
11:25 1016 30 845 24.95 8.8 47.8 80 5.5 41.8
11:30 1016 30 845 24.95 8.7 47.7 80 5.5 41.8
11:35 1016 30 845 24.95 8.8 47.8 79 5.3 41.6
11:40 1016 30 845 24.95 8.9 48 79 5.4 41.8
11:45 1016 30 845 24.95 9 48.2 79 5.5 41.9
11:50 1016 30 845 24.95 9.1 48.4 77 5.4 41.7
11:55 1016 30 845 24.95 9.1 48.4 76 5.1 41.2
12:00 1016 30 845 24.95 9.3 48.7 75 5 41
12:05 1016 30 845 24.95 9.3 48.7 76 5.3 41.6
12:10 1016 30 845 24.95 9.2 48.6 76 5.1 41.2
12:15 1016 30 845 24.95 9.1 48.4 77 5.3 41.5
12:20 1016 30 845 24.95 9.1 48.3 77 5.3 41.5
12:25 1016 30 846 24.98 8.9 48.1 78 5.3 41.6
12:30 1016 30 846 24.98 8.8 47.8 77 5.1 41.1
12:35 1016 30 846 24.98 8.7 47.6 80 5.4 41.7
12:40 1017 30.03 846 24.98 8.7 47.6 79 5.3 41.5
12:45 1017 30.03 846 24.98 8.7 47.6 80 5.5 41.8
12:50 1017 30.03 846 24.98 8.7 47.7 78 5.2 41.3
12:55 1017 30.03 846 24.98 8.8 47.8 80 5.5 41.9
13:00 1017 30.03 846 24.98 8.9 48 79 5.4 41.8
13:05 1017 30.03 846 24.98 8.9 48.1 79 5.6 42
13:10 1017 30.03 846 24.98 8.9 48 82 5.9 42.6
13:15 1017 30.03 846 24.98 8.9 48 81 5.9 42.6
13:20 1017 30.03 846 24.98 8.9 48 82 6.1 43
13:25 1017 30.03 846 24.98 9 48.1 81 5.9 42.6
13:30 1017 30.03 846 24.98 9 48.3 81 5.9 42.7
13:35 1017 30.03 846 24.98 9.2 48.6 80 6 42.8
13:40 1017 30.03 846 24.98 9.6 49.2 76 5.6 42.2
13:45 1017 30.03 846 24.98 9.7 49.5 79 6.4 43.5
13:50 1017 30.03 846 24.98 10 50 78 6.4 43.6
13:55 1017 30.03 846 24.98 9.5 49.1 79 6.1 43
14:00 1017 30.03 846 24.98 9.5 49.2 82 6.6 43.8
14:05 1017 30.03 846 24.98 9.9 49.8 80 6.6 44
14:10 1017 30.03 846 24.98 9.6 49.4 77 5.9 42.5
14:15 1016 30 846 24.98 9.6 49.3 81 6.6 43.9
14:20 1016 30 846 24.98 9.4 48.8 77 5.5 41.9
14:25 1016 30 845 24.95 9.3 48.8 73 4.7 40.4
14:30 1016 30 845 24.95 9.8 49.7 72 5 41
14:35 1016 30 845 24.95 10.2 50.4 71 5.2 41.3
14:40 1016 30 845 24.95 11.1 52 66 5 41
14:45 1016 30 845 24.95 11.4 52.4 67 5.5 42
14:50 1016 30 845 24.95 11.6 52.9 65 5.4 41.7
14:55 1015 29.97 845 24.95 12.2 53.9 64 5.6 42
15:00 1015 29.97 844 24.92 12.5 54.6 64 6 42.7
15:05 1015 29.97 844 24.92 13.7 56.7 37 -0.6 31
15:10 1015 29.97 844 24.92 14.8 58.6 37 0.4 32.6
15:15 1015 29.97 844 24.92 15 58.9 38 0.7 33.3
15:20 1015 29.97 844 24.92 15.3 59.5 34 -0.4 31.2
15:25 1015 29.97 844 24.92 15.6 60.1 32 -1 30.2
15:30 1015 29.97 844 24.92 15.7 60.2 29 -2.3 27.9
15:35 1015 29.97 844 24.92 16 60.7 29 -1.9 28.5
15:40 1015 29.97 844 24.92 16.1 61.1 26 -3.2 26.2
15:45 1015 29.97 844 24.92 16.5 61.7 26 -2.9 26.7
15:50 1015 29.97 844 24.92 16.6 62 25 -3.5 25.8
15:55 1015 29.97 844 24.92 16.5 61.8 24 -4.1 24.6
16:00 1015 29.97 844 24.92 16.5 61.7 23 -4.7 23.6
16:05 1015 29.97 844 24.92 16.6 61.9 21 -5.8 21.5
16:10 1015 29.97 844 24.92 16.6 61.8 23 -4.7 23.5
16:15 1015 29.97 844 24.92 16.6 61.9 23 -4.3 24.3
16:20 1015 29.97 844 24.92 16.6 61.9 23 -4.5 23.9
16:25 1015 29.97 844 24.92 16.6 61.9 24 -4 24.8
16:30 1015 29.97 844 24.92 16.7 62.1 23 -4.5 24
16:35 1015 29.97 845 24.95 16.7 62.1 24 -4.1 24.7
16:40 1016 30 845 24.95 16.3 61.4 48 5.4 41.6
16:45 1016 30 845 24.95 14.4 58 55 5.6 42
16:50 1016 30 845 24.95 13.9 56.9 54 4.8 40.7
16:55 1016 30 845 24.95 13.2 55.8 53 3.8 38.9
17:00 1016 30 846 24.98 12.7 54.9 52 3.2 37.7
17:05 1017 30.03 846 24.98 12.6 54.6 54 3.6 38.4
17:10 1017 30.03 846 24.98 12.3 54.1 55 3.5 38.4
17:15 1017 30.03 846 24.98 11.9 53.3 56 3.3 38
17:20 1017 30.03 846 24.98 11.6 52.8 57 3.3 37.9
17:25 1017 30.03 846 24.98 11.2 52.2 58 3.2 37.7
17:30 1017 30.03 846 24.98 11 51.8 59 3.4 38.2
17:35 1017 30.03 846 24.98 10.6 51.1 60 3.1 37.7
17:40 1017 30.03 846 24.98 10.7 51.2 57 2.6 36.7
17:45 1017 30.03 847 25.01 10.6 51 55 2 35.6
17:50 1017 30.03 846 24.98 10.6 51.1 55 1.9 35.4
17:55 1017 30.03 846 24.98 10.6 51.1 52 1.1 34
18:00 1017 30.03 846 24.98 10.7 51.2 53 1.5 34.8
18:05 1017 30.03 846 24.98 10.8 51.4 52 1.4 34.6
18:10 1017 30.03 846 24.98 10.9 51.6 51 1.2 34.2
18:15 1017 30.03 846 24.98 10.8 51.5 54 1.9 35.5
18:20 1017 30.03 846 24.98 10.6 51.1 56 2.3 36.1
18:25 1017 30.03 846 24.98 10.6 51.1 56 2.3 36.1
18:30 1017 30.03 846 24.98 10.4 50.7 57 2.4 36.2
18:35 1017 30.03 846 24.98 10.2 50.3 58 2.4 36.3
18:40 1017 30.03 846 24.98 10 50.1 59 2.4 36.3
18:45 1017 30.03 846 24.98 9.9 49.7 59 2.2 35.9
18:50 1017 30.03 846 24.98 9.7 49.5 59 2.1 35.7
18:55 1017 30.03 847 25.01 9.7 49.4 58 2 35.5
19:00 1018 30.06 847 25.01 9.7 49.4 59 2.1 35.8
19:05 1018 30.06 847 25.01 9.7 49.4 60 2.2 36
19:10 1018 30.06 847 25.01 9.7 49.5 58 1.9 35.3
19:15 1018 30.06 847 25.01 10.1 50.2 53 1 33.9
19:20 1018 30.06 847 25.01 10.2 50.3 48 -0.2 31.6
19:25 1018 30.06 847 25.01 10.6 51 47 -0.4 31.3
19:30 1018 30.06 847 25.01 10.7 51.2 42 -1.7 29
19:35 1018 30.06 847 25.01 11.1 52 35 -3.6 25.5
19:40 1018 30.06 847 25.01 11.6 52.8 32 -4.4 24
19:45 1018 30.06 847 25.01 11.8 53.3 32 -4.1 24.6
19:50 1018 30.06 847 25.01 12.4 54.3 27 -6 21.2
19:55 1018 30.06 847 25.01 12.2 53.9 34 -3.4 25.9
20:00 1018 30.06 847 25.01 11.4 52.6 38 -2.4 27.6
20:05 1018 30.06 847 25.01 11 51.7 40 -2.2 28.1
20:10 1018 30.06 848 25.04 10.8 51.4 38 -2.9 26.7
20:15 1019 30.09 848 25.04 10.9 51.7 36 -3.5 25.7
20:20 1019 30.09 848 25.04 11.1 52 41 -1.7 28.9
20:25 1019 30.09 848 25.04 10.6 51.2 43 -1.5 29.4
20:30 1019 30.09 848 25.04 10.3 50.6 46 -0.7 30.8
20:35 1019 30.09 849 25.07 9.9 49.9 55 1.3 34.3
20:40 1020 30.12 849 25.07 9.2 48.5 62 2.3 36.2
20:45 1020 30.12 849 25.07 8.5 47.3 64 2.2 35.9
20:50 1020 30.12 849 25.07 8.2 46.7 65 2 35.6
20:55 1020 30.12 849 25.07 7.9 46.3 65 1.7 35.1
21:00 1020 30.12 849 25.07 7.8 46.1 65 1.8 35.2
21:05 1020 30.12 849 25.07 7.7 45.9 65 1.7 35
21:10 1020 30.12 849 25.07 7.7 45.8 65 1.6 34.9
21:15 1020 30.12 849 25.07 7.7 45.8 65 1.6 34.9
21:20 1020 30.12 849 25.07 7.7 45.8 65 1.6 34.8
21:25 1020 30.12 849 25.07 7.6 45.7 67 1.8 35.2
21:30 1020 30.12 849 25.07 7.3 45.1 68 1.8 35.2
21:35 1020 30.12 849 25.07 7.3 45.1 68 1.8 35.2
21:40 1020 30.12 849 25.07 7.5 45.5 67 1.8 35.2
21:45 1020 30.12 849 25.07 7.6 45.7 67 1.9 35.5
21:50 1020 30.12 849 25.07 7.5 45.5 67 1.7 35.1
21:55 1020 30.12 849 25.07 7.5 45.4 68 1.9 35.5
22:00 1020 30.12 849 25.07 7.4 45.3 67 1.6 34.9
22:05 1020 30.12 849 25.07 7.5 45.5 68 1.9 35.5
22:10 1020 30.12 849 25.07 7.4 45.4 66 1.5 34.6
22:15 1020 30.12 849 25.07 7.4 45.4 65 1.4 34.4
22:20 1020 30.12 849 25.07 7.4 45.3 66 1.5 34.7
22:25 1020 30.12 849 25.07 7.3 45.1 66 1.4 34.5
22:30 1020 30.12 849 25.07 7.1 44.8 67 1.4 34.5
22:35 1020 30.12 849 25.07 6.7 44.1 68 1.3 34.3
22:40 1020 30.12 849 25.07 6.4 43.5 68 1 33.7
22:45 1020 30.12 849 25.07 6.2 43.1 69 0.9 33.6
22:50 1020 30.12 849 25.07 6.1 43 69 0.8 33.4
22:55 1020 30.12 849 25.07 6 42.7 69 0.7 33.2
23:00 1020 30.12 849 25.07 6.1 42.9 68 0.6 33
23:05 1020 30.12 849 25.07 6 42.8 68 0.6 33.1
23:10 1020 30.12 849 25.07 5.9 42.6 70 0.8 33.4
23:15 1020 30.12 849 25.07 6 42.8 66 0.1 32.2
23:20 1020 30.12 849 25.07 6.3 43.4 67 0.8 33.4
23:25 1020 30.12 849 25.07 5.8 42.5 67 0.3 32.5
23:30 1020 30.12 849 25.07 5.7 42.3 69 0.4 32.8
23:35 1020 30.12 849 25.07 5.3 41.6 69 0.1 32.1
23:40 1020 30.12 849 25.07 5.8 42.4 64 -0.5 31.1
23:45 1020 30.12 849 25.07 6.3 43.3 64 0.1 32.1
23:50 1020 30.12 849 25.07 6.2 43.2 63 -0.4 31.3
23:55 1020 30.12 849 25.07 6.5 43.7 62 -0.3 31.5
24:00 1020 30.12 849 25.07 6.4 43.4 60 -0.8 30.6